Metar z pełnej godziny Komunikat METAR ze strony awiacja.imgw.pl Metar G00 EPZG METAR EPZG 190200Z 19002KT CAVOK 17/12 Q1019 =